Time;durP1;ratioP1;P1;durP2;ratioP2;P2;SDS_P1;SDS_P2;PMS_P1;PMS_P2;Temp;Humidity;BMP_temperature;BMP_pressure;BME280_temperature;BME280_humidity;BME280_pressure;Samples;Min_cycle;Max_cycle;Signal;HPM_P1;HPM_P2
2023/12/15 00:01:20;;;;;;;9.50;9.00;;;;;;;;;;4946957;28;20282;-73
2023/12/15 00:03:45;;;;;;;9.13;8.68;;;;;;;;;;4950064;28;20658;-73
2023/12/15 00:06:11;;;;;;;8.80;8.40;;;;;;;;;;4948269;28;20035;-73
2023/12/15 00:08:37;;;;;;;9.70;9.20;;;;;;;;;;4949390;28;20039;-74
2023/12/15 00:11:04;;;;;;;8.88;8.48;;;;;;;;;;4952755;28;20037;-74
2023/12/15 00:13:29;;;;;;;9.45;8.95;;;;;;;;;;4945677;28;20047;-74
2023/12/15 00:15:55;;;;;;;9.40;8.90;;;;;;;;;;4946745;28;20103;-74
2023/12/15 00:18:21;;;;;;;9.82;9.32;;;;;;;;;;4944130;28;20023;-74
2023/12/15 00:20:47;;;;;;;9.77;9.27;;;;;;;;;;4942668;29;20186;-74
2023/12/15 00:23:13;;;;;;;9.80;9.30;;;;;;;;;;4942164;28;20043;-74
2023/12/15 00:25:38;;;;;;;9.60;9.10;;;;;;;;;;4940689;28;20043;-74
2023/12/15 00:28:04;;;;;;;9.82;9.32;;;;;;;;;;4940300;29;20035;-74
2023/12/15 00:30:30;;;;;;;10.20;9.70;;;;;;;;;;4943102;29;20039;-74
2023/12/15 00:32:56;;;;;;;9.45;8.95;;;;;;;;;;4941740;28;20077;-74
2023/12/15 00:35:21;;;;;;;10.07;9.57;;;;;;;;;;4942072;28;20925;-74
2023/12/15 00:37:47;;;;;;;9.50;9.00;;;;;;;;;;4940197;29;20039;-74
2023/12/15 00:40:13;;;;;;;9.45;8.95;;;;;;;;;;4940683;29;20093;-74
2023/12/15 00:42:38;;;;;;;10.02;9.52;;;;;;;;;;4941267;29;20073;-74
2023/12/15 00:45:05;;;;;;;9.43;8.93;;;;;;;;;;4938800;28;20035;-74
2023/12/15 00:47:31;;;;;;;9.88;9.38;;;;;;;;;;4939169;29;20042;-74
2023/12/15 00:49:59;;;;;;;9.38;8.88;;;;;;;;;;4939576;29;20901;-74
2023/12/15 00:52:24;;;;;;;9.52;9.02;;;;;;;;;;4936672;29;20038;-74
2023/12/15 00:54:50;;;;;;;9.75;9.25;;;;;;;;;;4935987;28;20043;-74
2023/12/15 00:57:16;;;;;;;10.02;9.52;;;;;;;;;;4941077;29;20039;-74
2023/12/15 00:59:41;;;;;;;10.05;9.55;;;;;;;;;;4937943;29;20036;-74
2023/12/15 01:02:08;;;;;;;8.75;8.35;;;;;;;;;;4938098;29;20469;-74
2023/12/15 01:04:33;;;;;;;9.57;9.07;;;;;;;;;;4941185;28;20572;-74
2023/12/15 01:06:59;;;;;;;9.82;9.32;;;;;;;;;;4938950;29;20134;-74
2023/12/15 01:09:25;;;;;;;9.32;8.82;;;;;;;;;;4937755;29;20110;-74
2023/12/15 01:11:50;;;;;;;9.75;9.25;;;;;;;;;;4940487;29;20047;-74
2023/12/15 01:14:16;;;;;;;9.55;9.05;;;;;;;;;;4937902;28;20054;-73
2023/12/15 01:16:46;;;;;;;9.60;9.10;;;;;;;;;;4941199;29;20039;-74
2023/12/15 01:19:11;;;;;;;9.50;9.00;;;;;;;;;;4940844;29;20577;-73
2023/12/15 01:21:37;;;;;;;9.73;9.23;;;;;;;;;;4938934;29;20086;-74
2023/12/15 01:24:03;;;;;;;9.60;9.10;;;;;;;;;;4940591;28;20116;-74
2023/12/15 01:26:29;;;;;;;9.02;8.57;;;;;;;;;;4940272;29;20046;-74
2023/12/15 01:28:54;;;;;;;9.95;9.45;;;;;;;;;;4941426;29;20039;-73
2023/12/15 01:31:20;;;;;;;9.35;8.85;;;;;;;;;;4936522;29;20230;-74
2023/12/15 01:33:46;;;;;;;9.43;8.93;;;;;;;;;;4937129;28;20089;-74
2023/12/15 01:36:11;;;;;;;9.45;8.95;;;;;;;;;;4940152;29;20043;-74
2023/12/15 01:38:37;;;;;;;8.95;8.55;;;;;;;;;;4941384;29;20027;-74
2023/12/15 01:41:03;;;;;;;9.18;8.68;;;;;;;;;;4939257;29;20035;-74
2023/12/15 01:43:28;;;;;;;9.52;9.02;;;;;;;;;;4939813;28;20039;-74
2023/12/15 01:45:54;;;;;;;9.27;8.77;;;;;;;;;;4939987;29;20509;-74
2023/12/15 01:48:20;;;;;;;11.40;10.80;;;;;;;;;;4940142;29;20035;-74
2023/12/15 01:50:45;;;;;;;9.20;8.70;;;;;;;;;;4941515;29;20529;-74
2023/12/15 01:53:11;;;;;;;9.55;9.05;;;;;;;;;;4939580;29;20097;-74
2023/12/15 01:55:36;;;;;;;9.77;9.27;;;;;;;;;;4939803;29;20520;-74
2023/12/15 01:58:02;;;;;;;9.30;8.80;;;;;;;;;;4939684;29;20038;-74
2023/12/15 02:00:28;;;;;;;8.55;8.15;;;;;;;;;;4939985;29;20128;-74
2023/12/15 02:02:53;;;;;;;8.82;8.43;;;;;;;;;;4936564;29;20038;-74
2023/12/15 02:05:19;;;;;;;9.32;8.82;;;;;;;;;;4939185;28;20042;-73
2023/12/15 02:07:45;;;;;;;9.48;8.98;;;;;;;;;;4941256;29;20034;-73
2023/12/15 02:10:11;;;;;;;9.48;8.98;;;;;;;;;;4941692;29;20425;-73
2023/12/15 02:12:36;;;;;;;9.43;8.93;;;;;;;;;;4938649;29;20046;-73
2023/12/15 02:15:02;;;;;;;9.07;8.68;;;;;;;;;;4939953;28;20054;-73
2023/12/15 02:17:27;;;;;;;9.27;8.77;;;;;;;;;;4934662;29;20050;-73
2023/12/15 02:19:53;;;;;;;9.55;9.05;;;;;;;;;;4940825;29;20035;-74
2023/12/15 02:22:25;;;;;;;9.88;9.38;;;;;;;;;;4938720;29;20051;-74
2023/12/15 02:24:50;;;;;;;9.85;9.35;;;;;;;;;;4940465;29;20039;-74
2023/12/15 02:27:16;;;;;;;10.57;10.07;;;;;;;;;;4937181;29;20050;-74
2023/12/15 02:29:42;;;;;;;9.90;9.40;;;;;;;;;;4938559;29;20043;-74
2023/12/15 02:32:07;;;;;;;9.07;8.68;;;;;;;;;;4941523;29;20035;-73
2023/12/15 02:34:33;;;;;;;9.90;9.40;;;;;;;;;;4939233;28;20043;-74
2023/12/15 02:36:58;;;;;;;10.10;9.60;;;;;;;;;;4939130;29;20548;-74
2023/12/15 02:39:24;;;;;;;9.68;9.18;;;;;;;;;;4939762;29;20481;-74
2023/12/15 02:41:49;;;;;;;10.20;9.70;;;;;;;;;;4937757;29;20039;-74
2023/12/15 02:44:15;;;;;;;9.82;9.32;;;;;;;;;;4939851;28;20046;-74
2023/12/15 02:46:41;;;;;;;10.18;9.68;;;;;;;;;;4941224;29;20122;-74
2023/12/15 02:49:08;;;;;;;10.75;10.23;;;;;;;;;;4937118;29;20044;-74
2023/12/15 02:51:33;;;;;;;9.50;9.00;;;;;;;;;;4939109;28;20162;-74
2023/12/15 02:54:00;;;;;;;10.20;9.70;;;;;;;;;;4937652;29;20122;-74
2023/12/15 02:56:26;;;;;;;10.30;9.80;;;;;;;;;;4936482;29;20063;-74
2023/12/15 02:58:52;;;;;;;9.50;9.00;;;;;;;;;;4938061;29;20078;-74
2023/12/15 03:01:18;;;;;;;10.25;9.75;;;;;;;;;;4939593;29;20031;-74
2023/12/15 03:03:44;;;;;;;10.27;9.77;;;;;;;;;;4938861;29;20122;-74
2023/12/15 03:06:10;;;;;;;10.15;9.65;;;;;;;;;;4941017;29;20127;-74
2023/12/15 03:08:35;;;;;;;9.90;9.40;;;;;;;;;;4938218;29;20130;-74
2023/12/15 03:11:02;;;;;;;9.63;9.13;;;;;;;;;;4938884;29;20043;-74
2023/12/15 03:13:28;;;;;;;10.07;9.57;;;;;;;;;;4938903;28;20039;-74
2023/12/15 03:16:03;;;;;;;10.38;9.88;;;;;;;;;;4937527;28;20115;-74
2023/12/15 03:18:30;;;;;;;9.80;9.30;;;;;;;;;;4924346;29;20043;-74
2023/12/15 03:20:55;;;;;;;10.48;9.98;;;;;;;;;;4941341;29;20051;-74
2023/12/15 03:23:21;;;;;;;10.02;9.52;;;;;;;;;;4943433;29;20067;-73
2023/12/15 03:25:46;;;;;;;10.07;9.57;;;;;;;;;;4941831;28;20093;-74
2023/12/15 03:28:12;;;;;;;9.88;9.38;;;;;;;;;;4942740;29;20638;-73
2023/12/15 03:30:38;;;;;;;10.32;9.82;;;;;;;;;;4942378;29;20685;-74
2023/12/15 03:33:03;;;;;;;10.27;9.77;;;;;;;;;;4939016;29;20413;-74
2023/12/15 03:35:29;;;;;;;10.45;9.95;;;;;;;;;;4940842;29;20045;-74
2023/12/15 03:37:54;;;;;;;11.85;11.13;;;;;;;;;;4933856;28;20042;-74
2023/12/15 03:40:20;;;;;;;9.93;9.43;;;;;;;;;;4944790;28;20039;-74
2023/12/15 03:42:49;;;;;;;10.38;9.88;;;;;;;;;;4943128;29;20646;-74
2023/12/15 03:45:14;;;;;;;10.65;10.15;;;;;;;;;;4942727;28;20042;-74
2023/12/15 03:47:40;;;;;;;10.07;9.57;;;;;;;;;;4942796;29;20036;-73
2023/12/15 03:50:06;;;;;;;10.40;9.90;;;;;;;;;;4943502;29;20035;-74
2023/12/15 03:52:33;;;;;;;10.13;9.63;;;;;;;;;;4939198;29;20074;-74
2023/12/15 03:54:58;;;;;;;10.65;10.15;;;;;;;;;;4941445;28;20035;-74
2023/12/15 03:57:24;;;;;;;9.98;9.48;;;;;;;;;;4941319;29;20042;-74
2023/12/15 03:59:50;;;;;;;10.55;10.05;;;;;;;;;;4943642;29;20410;-74
2023/12/15 04:02:15;;;;;;;10.75;10.25;;;;;;;;;;4942298;29;20086;-74
2023/12/15 04:04:44;;;;;;;11.48;10.88;;;;;;;;;;4941572;28;20508;-74
2023/12/15 04:07:10;;;;;;;10.63;10.13;;;;;;;;;;4942618;29;20058;-74
2023/12/15 04:09:35;;;;;;;10.85;10.35;;;;;;;;;;4941093;29;20397;-74
2023/12/15 04:12:03;;;;;;;10.55;10.05;;;;;;;;;;4942612;29;20058;-74
2023/12/15 04:14:29;;;;;;;10.13;9.63;;;;;;;;;;4941258;28;20039;-74
2023/12/15 04:16:54;;;;;;;9.77;9.27;;;;;;;;;;4940683;29;20388;-74
2023/12/15 04:19:20;;;;;;;13.40;12.70;;;;;;;;;;4943191;29;20122;-74
2023/12/15 04:21:45;;;;;;;10.60;10.10;;;;;;;;;;4942617;29;20047;-74
2023/12/15 04:24:11;;;;;;;10.20;9.70;;;;;;;;;;4941048;28;20072;-74
2023/12/15 04:26:37;;;;;;;10.40;9.90;;;;;;;;;;4942000;29;20048;-74
2023/12/15 04:29:02;;;;;;;10.20;9.70;;;;;;;;;;4942532;29;20039;-74
2023/12/15 04:31:28;;;;;;;10.77;10.27;;;;;;;;;;4941937;29;20047;-74
2023/12/15 04:33:54;;;;;;;9.60;9.10;;;;;;;;;;4938843;29;20369;-74
2023/12/15 04:36:20;;;;;;;10.63;10.13;;;;;;;;;;4941462;29;20031;-74
2023/12/15 04:38:46;;;;;;;10.30;9.80;;;;;;;;;;4943346;29;20035;-74
2023/12/15 04:41:22;;;;;;;10.25;9.75;;;;;;;;;;4942091;29;20046;-74
2023/12/15 04:43:48;;;;;;;10.95;10.43;;;;;;;;;;4940788;28;20043;-74
2023/12/15 04:46:28;;;;;;;10.07;9.57;;;;;;;;;;4941971;29;20544;-74
2023/12/15 04:48:55;;;;;;;9.77;9.27;;;;;;;;;;4941766;29;20104;-74
2023/12/15 04:51:21;;;;;;;10.68;10.18;;;;;;;;;;4942327;29;20077;-74
2023/12/15 04:53:48;;;;;;;10.52;10.02;;;;;;;;;;4937849;28;20043;-74
2023/12/15 04:56:14;;;;;;;9.93;9.43;;;;;;;;;;4941172;29;20047;-75
2023/12/15 04:58:40;;;;;;;11.18;10.60;;;;;;;;;;4941636;29;20043;-74
2023/12/15 05:01:13;;;;;;;10.30;9.80;;;;;;;;;;4941340;29;20118;-74
2023/12/15 05:03:39;;;;;;;10.13;9.63;;;;;;;;;;4940852;28;20030;-75
2023/12/15 05:06:06;;;;;;;10.13;9.63;;;;;;;;;;4938354;29;20031;-74
2023/12/15 05:08:31;;;;;;;10.40;9.90;;;;;;;;;;4938873;29;20051;-74
2023/12/15 05:10:57;;;;;;;9.85;9.35;;;;;;;;;;4941500;29;20047;-75
2023/12/15 05:13:23;;;;;;;11.48;10.88;;;;;;;;;;4941259;28;20039;-75
2023/12/15 05:15:49;;;;;;;10.98;10.43;;;;;;;;;;4939439;29;20034;-74
2023/12/15 05:18:16;;;;;;;10.07;9.57;;;;;;;;;;4941383;29;20035;-74
2023/12/15 05:20:42;;;;;;;10.68;10.18;;;;;;;;;;4942500;29;20698;-74
2023/12/15 05:23:08;;;;;;;10.85;10.35;;;;;;;;;;4937456;29;20043;-74
2023/12/15 05:25:34;;;;;;;10.35;9.85;;;;;;;;;;4939419;28;20860;-75
2023/12/15 05:27:59;;;;;;;11.63;11.02;;;;;;;;;;4941449;29;20043;-74
2023/12/15 05:30:25;;;;;;;10.85;10.35;;;;;;;;;;4937919;29;20038;-73
2023/12/15 05:32:50;;;;;;;10.82;10.32;;;;;;;;;;4940489;29;20098;-74
2023/12/15 05:35:16;;;;;;;10.98;10.43;;;;;;;;;;4938479;28;20074;-74
2023/12/15 05:37:42;;;;;;;11.00;10.40;;;;;;;;;;4937613;29;20035;-73
2023/12/15 05:40:12;;;;;;;12.68;11.82;;;;;;;;;;4940525;28;20081;-74
2023/12/15 05:42:37;;;;;;;10.75;10.25;;;;;;;;;;4940775;29;20039;-73
2023/12/15 05:45:04;;;;;;;10.85;10.32;;;;;;;;;;4940109;28;20038;-73
2023/12/15 05:47:30;;;;;;;11.18;10.57;;;;;;;;;;4938359;29;20039;-74
2023/12/15 05:49:55;;;;;;;11.15;10.55;;;;;;;;;;4937395;29;20061;-73
2023/12/15 05:52:21;;;;;;;11.45;10.85;;;;;;;;;;4938068;28;20045;-73
2023/12/15 05:54:46;;;;;;;10.60;10.10;;;;;;;;;;4939091;28;20039;-73
2023/12/15 05:57:12;;;;;;;11.68;11.07;;;;;;;;;;4940537;29;20037;-73
2023/12/15 05:59:37;;;;;;;11.32;10.73;;;;;;;;;;4941150;29;20039;-73
2023/12/15 06:02:03;;;;;;;11.85;11.25;;;;;;;;;;4940544;29;20039;-73
2023/12/15 06:04:29;;;;;;;12.23;11.63;;;;;;;;;;4938604;28;20562;-73
2023/12/15 06:06:54;;;;;;;11.60;11.00;;;;;;;;;;4940269;29;20042;-73
2023/12/15 06:09:20;;;;;;;10.50;10.00;;;;;;;;;;4940262;29;20058;-73
2023/12/15 06:11:45;;;;;;;11.23;10.63;;;;;;;;;;4941430;29;20130;-73
2023/12/15 06:14:11;;;;;;;11.50;10.90;;;;;;;;;;4936549;28;20042;-73
2023/12/15 06:16:37;;;;;;;11.40;10.80;;;;;;;;;;4939621;28;20070;-73
2023/12/15 06:19:02;;;;;;;11.63;11.02;;;;;;;;;;4940621;29;20033;-73
2023/12/15 06:21:28;;;;;;;11.60;11.00;;;;;;;;;;4937944;29;20121;-73
2023/12/15 06:23:54;;;;;;;12.13;11.52;;;;;;;;;;4939599;29;20043;-73
2023/12/15 06:26:24;;;;;;;12.38;11.77;;;;;;;;;;4941181;28;20047;-73
2023/12/15 06:28:50;;;;;;;12.02;11.43;;;;;;;;;;4940987;29;20658;-73
2023/12/15 06:31:16;;;;;;;11.50;10.90;;;;;;;;;;4939756;29;20122;-73
2023/12/15 06:33:42;;;;;;;11.60;11.00;;;;;;;;;;4939527;28;20031;-73
2023/12/15 06:36:08;;;;;;;10.98;10.38;;;;;;;;;;4940445;29;20034;-73
2023/12/15 06:38:39;;;;;;;11.32;10.73;;;;;;;;;;4940275;29;20082;-73
2023/12/15 06:41:05;;;;;;;11.10;10.50;;;;;;;;;;4938254;28;20031;-73
2023/12/15 06:43:31;;;;;;;11.20;10.60;;;;;;;;;;4937133;29;20039;-73
2023/12/15 06:45:57;;;;;;;11.30;10.70;;;;;;;;;;4940171;29;20094;-73
2023/12/15 06:48:22;;;;;;;11.88;11.27;;;;;;;;;;4940858;29;20090;-73
2023/12/15 06:50:48;;;;;;;11.25;10.65;;;;;;;;;;4936421;29;20118;-73
2023/12/15 06:53:13;;;;;;;11.63;11.02;;;;;;;;;;4933884;28;20048;-73
2023/12/15 06:55:39;;;;;;;11.60;11.00;;;;;;;;;;4936821;29;20122;-73
2023/12/15 06:58:04;;;;;;;11.07;10.48;;;;;;;;;;4938215;29;20042;-73
2023/12/15 07:00:30;;;;;;;11.50;10.90;;;;;;;;;;4939199;29;20141;-73
2023/12/15 07:02:55;;;;;;;11.98;11.38;;;;;;;;;;4940254;29;20058;-73
2023/12/15 07:05:21;;;;;;;11.50;10.90;;;;;;;;;;4936512;28;20034;-73
2023/12/15 07:07:47;;;;;;;11.45;10.85;;;;;;;;;;4940431;29;20042;-72
2023/12/15 07:10:13;;;;;;;11.48;10.88;;;;;;;;;;4937239;28;20039;-73
2023/12/15 07:12:38;;;;;;;11.00;10.40;;;;;;;;;;4936226;29;20501;-73
2023/12/15 07:15:05;;;;;;;11.40;10.80;;;;;;;;;;4932925;29;20105;-73
2023/12/15 07:17:30;;;;;;;12.10;11.50;;;;;;;;;;4940308;29;20062;-73
2023/12/15 07:19:56;;;;;;;11.85;11.25;;;;;;;;;;4937343;29;20113;-73
2023/12/15 07:22:22;;;;;;;11.75;11.15;;;;;;;;;;4933299;29;20082;-73
2023/12/15 07:24:47;;;;;;;12.00;11.40;;;;;;;;;;4940559;28;20036;-73
2023/12/15 07:27:13;;;;;;;11.73;11.13;;;;;;;;;;4937551;29;20043;-73
2023/12/15 07:29:39;;;;;;;11.60;11.00;;;;;;;;;;4938966;29;20498;-73
2023/12/15 07:32:05;;;;;;;11.68;11.07;;;;;;;;;;4939366;29;20027;-73
2023/12/15 07:34:30;;;;;;;11.80;11.20;;;;;;;;;;4939500;28;20430;-73
2023/12/15 07:36:56;;;;;;;11.73;11.13;;;;;;;;;;4937898;29;20069;-73
2023/12/15 07:39:21;;;;;;;11.63;11.02;;;;;;;;;;4941149;28;20031;-73
2023/12/15 07:41:48;;;;;;;11.30;10.70;;;;;;;;;;4938946;29;20069;-72
2023/12/15 07:44:14;;;;;;;11.23;10.63;;;;;;;;;;4935103;29;20677;-73
2023/12/15 07:46:41;;;;;;;11.05;10.45;;;;;;;;;;4922239;29;20047;-72
2023/12/15 07:49:06;;;;;;;11.43;10.82;;;;;;;;;;4936465;29;20038;-73
2023/12/15 07:51:32;;;;;;;11.00;10.40;;;;;;;;;;4934979;29;20043;-73
2023/12/15 07:53:58;;;;;;;11.13;10.52;;;;;;;;;;4935056;29;20035;-73
2023/12/15 07:56:26;;;;;;;11.60;11.00;;;;;;;;;;4939617;29;20054;-73
2023/12/15 07:58:52;;;;;;;11.80;11.20;;;;;;;;;;4940205;29;20063;-73
2023/12/15 08:01:19;;;;;;;11.82;11.23;;;;;;;;;;4936718;29;20130;-73
2023/12/15 08:03:45;;;;;;;11.88;11.27;;;;;;;;;;4938318;28;20035;-73
2023/12/15 08:06:13;;;;;;;11.40;10.80;;;;;;;;;;4942617;29;20038;-73
2023/12/15 08:08:39;;;;;;;11.68;11.07;;;;;;;;;;4942074;29;20527;-73
2023/12/15 08:11:05;;;;;;;11.48;10.88;;;;;;;;;;4938190;29;20035;-73
2023/12/15 08:13:30;;;;;;;11.93;11.32;;;;;;;;;;4941653;29;20039;-73
2023/12/15 08:15:56;;;;;;;11.35;10.75;;;;;;;;;;4941911;28;20046;-73
2023/12/15 08:18:21;;;;;;;11.45;10.85;;;;;;;;;;4940451;29;20578;-73
2023/12/15 08:20:50;;;;;;;12.02;11.43;;;;;;;;;;4943645;28;20114;-73
2023/12/15 08:23:16;;;;;;;11.73;11.13;;;;;;;;;;4936625;28;20066;-73
2023/12/15 08:25:41;;;;;;;11.52;10.93;;;;;;;;;;4942225;28;20043;-72
2023/12/15 08:28:09;;;;;;;12.00;11.40;;;;;;;;;;4938277;28;20031;-73
2023/12/15 08:30:35;;;;;;;11.55;10.95;;;;;;;;;;4936647;28;20498;-73
2023/12/15 08:33:01;;;;;;;11.50;10.90;;;;;;;;;;4920815;29;20109;-72
2023/12/15 08:35:27;;;;;;;11.65;11.05;;;;;;;;;;4934942;28;20031;-73
2023/12/15 08:37:56;;;;;;;11.75;11.15;;;;;;;;;;4924706;29;20409;-73
2023/12/15 08:40:25;;;;;;;;;;;;;;;;;;4938316;28;20454;-73
2023/12/15 08:42:51;;;;;;;11.10;10.50;;;;;;;;;;4932954;28;19918;-73
2023/12/15 08:45:17;;;;;;;11.70;11.10;;;;;;;;;;4932104;28;20488;-73
2023/12/15 08:47:43;;;;;;;12.43;11.82;;;;;;;;;;4935051;29;20023;-73
2023/12/15 08:50:09;;;;;;;11.65;11.05;;;;;;;;;;4937264;29;20058;-73
2023/12/15 08:52:35;;;;;;;11.85;11.25;;;;;;;;;;4924873;28;20831;-73
2023/12/15 08:55:01;;;;;;;11.63;11.02;;;;;;;;;;4938724;29;20047;-73
2023/12/15 08:57:27;;;;;;;12.35;11.75;;;;;;;;;;4939304;29;20626;-73
2023/12/15 08:59:53;;;;;;;10.48;9.98;;;;;;;;;;4937886;29;20031;-73
2023/12/15 09:02:19;;;;;;;14.13;13.30;;;;;;;;;;4940257;28;20035;-73
2023/12/15 09:04:45;;;;;;;11.93;11.32;;;;;;;;;;4935140;28;20046;-73
2023/12/15 09:07:11;;;;;;;11.63;11.02;;;;;;;;;;4936740;28;20039;-73
2023/12/15 09:09:38;;;;;;;12.07;11.48;;;;;;;;;;4936954;29;20031;-74
2023/12/15 09:12:05;;;;;;;12.20;11.60;;;;;;;;;;4939955;29;20672;-73
2023/12/15 09:14:32;;;;;;;11.68;11.07;;;;;;;;;;4935166;28;20031;-73
2023/12/15 09:17:02;;;;;;;11.52;10.93;;;;;;;;;;4937782;29;20634;-73
2023/12/15 09:19:29;;;;;;;11.40;10.80;;;;;;;;;;4939093;29;20039;-73
2023/12/15 09:21:55;;;;;;;10.90;10.32;;;;;;;;;;4940316;29;20329;-73
2023/12/15 09:24:21;;;;;;;11.30;10.70;;;;;;;;;;4939566;28;20724;-73
2023/12/15 09:26:46;;;;;;;12.07;11.48;;;;;;;;;;4937011;29;20054;-73
2023/12/15 09:29:13;;;;;;;12.02;11.43;;;;;;;;;;4940260;28;20123;-73
2023/12/15 09:31:39;;;;;;;11.43;10.82;;;;;;;;;;4939783;29;20119;-73
2023/12/15 09:34:05;;;;;;;11.93;11.32;;;;;;;;;;4938038;28;20039;-73
2023/12/15 09:36:30;;;;;;;11.30;10.70;;;;;;;;;;4940382;29;20038;-73
2023/12/15 09:38:56;;;;;;;11.63;11.02;;;;;;;;;;4932481;29;20031;-73
2023/12/15 09:41:23;;;;;;;12.02;11.43;;;;;;;;;;4924914;29;20035;-73
2023/12/15 09:43:49;;;;;;;12.23;11.63;;;;;;;;;;4936376;29;20142;-73
2023/12/15 09:46:15;;;;;;;11.73;11.13;;;;;;;;;;4937971;29;20076;-73
2023/12/15 09:48:44;;;;;;;11.02;10.43;;;;;;;;;;4934976;29;20102;-73
2023/12/15 09:51:17;;;;;;;10.90;10.30;;;;;;;;;;4936284;29;20046;-73
2023/12/15 09:53:46;;;;;;;10.98;10.38;;;;;;;;;;4934644;29;20086;-74
2023/12/15 09:56:12;;;;;;;11.02;10.43;;;;;;;;;;4934276;29;20050;-73
2023/12/15 09:58:38;;;;;;;10.95;10.35;;;;;;;;;;4935504;28;20034;-74
2023/12/15 10:01:04;;;;;;;10.35;9.85;;;;;;;;;;4939001;29;20930;-74
2023/12/15 10:03:31;;;;;;;11.13;10.52;;;;;;;;;;4938501;28;20045;-74
2023/12/15 10:05:56;;;;;;;10.60;10.10;;;;;;;;;;4941044;29;20664;-74
2023/12/15 10:08:24;;;;;;;11.55;10.95;;;;;;;;;;4938219;28;20039;-73
2023/12/15 10:10:52;;;;;;;10.77;10.23;;;;;;;;;;4936276;29;20050;-74
2023/12/15 10:13:18;;;;;;;11.20;10.60;;;;;;;;;;4934151;28;20047;-74
2023/12/15 10:15:44;;;;;;;11.27;10.68;;;;;;;;;;4938864;29;20042;-74
2023/12/15 10:18:12;;;;;;;11.23;10.63;;;;;;;;;;4938255;29;20134;-74
2023/12/15 10:20:38;;;;;;;11.55;10.95;;;;;;;;;;4936330;29;20562;-74
2023/12/15 10:23:06;;;;;;;11.35;10.75;;;;;;;;;;4938396;29;20039;-74
2023/12/15 10:25:35;;;;;;;11.45;10.85;;;;;;;;;;4933274;28;20050;-74
2023/12/15 10:28:04;;;;;;;12.63;11.93;;;;;;;;;;4920947;29;20150;-74
2023/12/15 10:30:30;;;;;;;11.45;10.85;;;;;;;;;;4939545;29;20106;-74
2023/12/15 10:32:59;;;;;;;11.50;10.90;;;;;;;;;;4935579;29;20047;-74
2023/12/15 10:35:25;;;;;;;11.95;11.35;;;;;;;;;;4938121;28;20027;-74
2023/12/15 10:37:52;;;;;;;13.35;12.63;;;;;;;;;;4935255;29;20078;-74
2023/12/15 10:40:17;;;;;;;11.43;10.82;;;;;;;;;;4939108;28;20031;-74
2023/12/15 10:42:44;;;;;;;11.43;10.82;;;;;;;;;;4939250;29;20043;-74
2023/12/15 10:45:10;;;;;;;11.40;10.80;;;;;;;;;;4936093;28;20859;-74
2023/12/15 10:47:37;;;;;;;12.45;11.82;;;;;;;;;;4938444;29;20046;-74
2023/12/15 10:50:03;;;;;;;12.02;11.43;;;;;;;;;;4937948;29;20068;-74
2023/12/15 10:52:33;;;;;;;11.95;11.35;;;;;;;;;;4921951;29;20074;-74
2023/12/15 10:55:03;;;;;;;12.32;11.73;;;;;;;;;;4937576;28;20050;-74
2023/12/15 10:57:32;;;;;;;12.60;11.95;;;;;;;;;;4938485;29;20046;-74
2023/12/15 11:00:00;;;;;;;11.98;11.38;;;;;;;;;;4935565;29;20047;-74
2023/12/15 11:02:28;;;;;;;12.38;11.77;;;;;;;;;;4934709;28;20701;-74
2023/12/15 11:04:58;;;;;;;11.55;10.95;;;;;;;;;;4936964;28;20041;-74
2023/12/15 11:07:24;;;;;;;11.77;11.18;;;;;;;;;;4937877;28;20175;-74
2023/12/15 11:09:51;;;;;;;11.30;10.70;;;;;;;;;;4935891;29;20046;-73
2023/12/15 11:12:42;;;;;;;11.18;10.57;;;;;;;;;;4937577;29;20046;-73
2023/12/15 11:15:13;;;;;;;11.82;11.23;;;;;;;;;;4922591;29;20478;-73
2023/12/15 11:17:49;;;;;;;12.00;11.40;;;;;;;;;;4935588;29;20050;-73
2023/12/15 11:20:20;;;;;;;11.13;10.52;;;;;;;;;;4936574;29;20437;-73
2023/12/15 11:23:05;;;;;;;10.38;9.88;;;;;;;;;;4936567;29;20035;-74
2023/12/15 11:25:34;;;;;;;11.15;10.55;;;;;;;;;;4937303;29;20122;-73
2023/12/15 11:28:03;;;;;;;11.73;11.13;;;;;;;;;;4939351;29;20031;-73
2023/12/15 11:30:30;;;;;;;11.05;10.45;;;;;;;;;;4933923;28;20611;-73
2023/12/15 11:32:56;;;;;;;11.10;10.50;;;;;;;;;;4936896;29;20043;-74
2023/12/15 11:35:31;;;;;;;10.85;10.25;;;;;;;;;;4937828;28;20050;-73
2023/12/15 11:38:00;;;;;;;11.15;10.55;;;;;;;;;;4936437;28;20054;-73
2023/12/15 11:40:29;;;;;;;10.95;10.35;;;;;;;;;;4942546;29;20505;-73
2023/12/15 11:42:56;;;;;;;;;;;;;;;;;;4941798;29;20097;-74
2023/12/15 11:45:26;;;;;;;10.30;9.80;;;;;;;;;;4938942;28;19923;-73
2023/12/15 11:47:53;;;;;;;10.70;10.10;;;;;;;;;;4937933;28;20571;-74
2023/12/15 11:50:21;;;;;;;10.88;10.27;;;;;;;;;;4939311;29;20861;-73
2023/12/15 11:52:48;;;;;;;10.93;10.32;;;;;;;;;;4937745;29;20063;-73
2023/12/15 11:55:15;;;;;;;10.73;10.13;;;;;;;;;;4938400;28;20093;-73
2023/12/15 11:57:40;;;;;;;11.15;10.55;;;;;;;;;;4940267;29;20035;-73
2023/12/15 12:00:08;;;;;;;10.80;10.20;;;;;;;;;;4927785;29;20050;-73
2023/12/15 12:02:34;;;;;;;10.60;10.07;;;;;;;;;;4938646;29;20042;-74
2023/12/15 12:04:59;;;;;;;11.15;10.55;;;;;;;;;;4938576;28;20039;-74
2023/12/15 12:07:25;;;;;;;11.55;10.95;;;;;;;;;;4937117;28;20043;-73
2023/12/15 12:09:51;;;;;;;10.82;10.23;;;;;;;;;;4936799;29;20050;-73
2023/12/15 12:12:17;;;;;;;10.52;10.02;;;;;;;;;;4939629;29;20712;-73
2023/12/15 12:14:42;;;;;;;10.52;10.02;;;;;;;;;;4941196;28;20045;-73
2023/12/15 12:17:10;;;;;;;10.48;9.98;;;;;;;;;;4938978;29;20035;-73
2023/12/15 12:19:42;;;;;;;10.90;10.30;;;;;;;;;;4941436;29;20046;-73
2023/12/15 12:22:10;;;;;;;10.40;9.90;;;;;;;;;;4936973;29;20043;-74
2023/12/15 12:24:35;;;;;;;10.90;10.30;;;;;;;;;;4920375;29;20753;-74
2023/12/15 12:27:01;;;;;;;10.63;10.10;;;;;;;;;;4939066;29;20031;-73
2023/12/15 12:29:31;;;;;;;10.85;10.25;;;;;;;;;;4940432;29;20035;-73
2023/12/15 12:31:56;;;;;;;10.48;9.98;;;;;;;;;;4940633;29;20085;-73
2023/12/15 12:34:22;;;;;;;10.35;9.85;;;;;;;;;;4936315;28;20043;-74
2023/12/15 12:36:47;;;;;;;10.43;9.93;;;;;;;;;;4938610;28;20126;-73
2023/12/15 12:39:13;;;;;;;10.63;10.10;;;;;;;;;;4945835;28;20055;-74
2023/12/15 12:41:39;;;;;;;10.70;10.15;;;;;;;;;;4941317;29;20070;-75
2023/12/15 12:44:04;;;;;;;10.65;10.07;;;;;;;;;;4926708;28;20041;-75
2023/12/15 12:46:31;;;;;;;11.27;10.65;;;;;;;;;;4933508;28;20042;-74
2023/12/15 12:48:56;;;;;;;10.20;9.70;;;;;;;;;;4935840;28;20107;-75
2023/12/15 12:51:23;;;;;;;10.23;9.73;;;;;;;;;;4935576;28;20045;-74
2023/12/15 12:53:49;;;;;;;10.27;9.77;;;;;;;;;;4940573;28;20122;-75
2023/12/15 12:56:15;;;;;;;10.32;9.82;;;;;;;;;;4938495;28;20046;-74
2023/12/15 12:58:40;;;;;;;10.80;10.20;;;;;;;;;;4941392;28;20035;-74
2023/12/15 13:01:06;;;;;;;10.85;10.25;;;;;;;;;;4935551;28;20125;-74
2023/12/15 13:03:33;;;;;;;10.45;9.95;;;;;;;;;;4938784;28;20548;-74
2023/12/15 13:05:58;;;;;;;10.85;10.25;;;;;;;;;;4934102;28;20117;-75
2023/12/15 13:08:24;;;;;;;11.07;10.48;;;;;;;;;;4935517;28;20161;-75
2023/12/15 13:10:49;;;;;;;11.02;10.43;;;;;;;;;;4936045;28;20054;-74
2023/12/15 13:13:15;;;;;;;11.00;10.40;;;;;;;;;;4933278;28;20038;-75
2023/12/15 13:15:40;;;;;;;10.85;10.25;;;;;;;;;;4921274;28;20062;-74
2023/12/15 13:18:06;;;;;;;11.35;10.75;;;;;;;;;;4936688;28;20705;-75
2023/12/15 13:20:31;;;;;;;11.20;10.60;;;;;;;;;;4939000;28;20035;-75
2023/12/15 13:22:57;;;;;;;10.73;10.15;;;;;;;;;;4935226;28;20126;-75
2023/12/15 13:25:23;;;;;;;11.07;10.48;;;;;;;;;;4919729;28;20078;-75
2023/12/15 13:27:49;;;;;;;11.23;10.63;;;;;;;;;;4935424;28;20050;-75
2023/12/15 13:30:15;;;;;;;19.80;17.75;;;;;;;;;;4935359;28;20038;-74
2023/12/15 13:32:41;;;;;;;10.60;10.05;;;;;;;;;;4936704;28;20043;-75
2023/12/15 13:35:08;;;;;;;10.40;9.90;;;;;;;;;;4939974;28;20468;-75
2023/12/15 13:37:33;;;;;;;10.80;10.20;;;;;;;;;;4937490;28;20041;-75
2023/12/15 13:39:59;;;;;;;10.85;10.25;;;;;;;;;;4936882;28;20035;-75
2023/12/15 13:42:25;;;;;;;10.60;10.10;;;;;;;;;;4931929;28;20035;-75
2023/12/15 13:44:51;;;;;;;10.88;10.27;;;;;;;;;;4937684;28;20210;-74
2023/12/15 13:47:16;;;;;;;10.52;10.02;;;;;;;;;;4935698;28;20047;-75
2023/12/15 13:49:42;;;;;;;10.93;10.32;;;;;;;;;;4936376;28;20047;-75
2023/12/15 13:52:08;;;;;;;10.43;9.93;;;;;;;;;;4939901;28;20042;-75
2023/12/15 13:54:34;;;;;;;10.75;10.15;;;;;;;;;;4939007;28;20101;-74
2023/12/15 13:57:03;;;;;;;10.73;10.13;;;;;;;;;;4939283;28;20508;-74
2023/12/15 13:59:31;;;;;;;11.30;10.70;;;;;;;;;;4917882;28;20054;-75
2023/12/15 14:01:57;;;;;;;11.10;10.50;;;;;;;;;;4934123;28;20085;-73
2023/12/15 14:04:22;;;;;;;10.80;10.20;;;;;;;;;;4939751;28;20039;-75
2023/12/15 14:06:49;;;;;;;10.63;10.02;;;;;;;;;;4940362;28;20050;-74
2023/12/15 14:09:15;;;;;;;10.73;10.13;;;;;;;;;;4931595;28;20113;-74
2023/12/15 14:11:42;;;;;;;10.55;9.98;;;;;;;;;;4939200;28;20047;-74
2023/12/15 14:14:08;;;;;;;11.18;10.57;;;;;;;;;;4940175;28;20109;-73
2023/12/15 14:16:34;;;;;;;10.70;10.10;;;;;;;;;;4937941;28;20043;-73
2023/12/15 14:19:00;;;;;;;11.48;10.88;;;;;;;;;;4937051;28;20031;-73
2023/12/15 14:21:25;;;;;;;10.80;10.20;;;;;;;;;;4940650;28;20610;-73